sensor_id;sensor_type;location;lat;lon;timestamp;pressure;altitude;pressure_sealevel;temperature;humidity
706;BME280;21234;48.690;9.016;2024-01-30T00:00:00;97401.00;;;4.34;85.48
706;BME280;21234;48.690;9.016;2024-01-30T00:02:27;97398.41;;;4.41;85.47
706;BME280;21234;48.690;9.016;2024-01-30T00:04:54;97397.47;;;4.34;85.82
706;BME280;21234;48.690;9.016;2024-01-30T00:07:22;97403.03;;;4.32;86.65
706;BME280;21234;48.690;9.016;2024-01-30T00:09:49;97401.25;;;4.25;86.65
706;BME280;21234;48.690;9.016;2024-01-30T00:12:16;97403.31;;;4.23;87.15
706;BME280;21234;48.690;9.016;2024-01-30T00:14:42;97393.19;;;4.25;86.55
706;BME280;21234;48.690;9.016;2024-01-30T00:17:09;97403.03;;;4.18;87.26
706;BME280;21234;48.690;9.016;2024-01-30T00:19:36;97398.13;;;4.21;86.96
706;BME280;21234;48.690;9.016;2024-01-30T00:22:03;97397.91;;;4.23;87.47
706;BME280;21234;48.690;9.016;2024-01-30T00:24:31;97394.88;;;4.26;86.81
706;BME280;21234;48.690;9.016;2024-01-30T00:26:58;97408.06;;;4.21;87.46
706;BME280;21234;48.690;9.016;2024-01-30T00:29:24;97403.59;;;4.28;87.39
706;BME280;21234;48.690;9.016;2024-01-30T00:31:55;97399.41;;;4.25;87.63
706;BME280;21234;48.690;9.016;2024-01-30T00:34:22;97398.38;;;4.26;87.55
706;BME280;21234;48.690;9.016;2024-01-30T00:36:49;97399.88;;;4.29;87.55
706;BME280;21234;48.690;9.016;2024-01-30T00:39:15;97395.16;;;4.31;87.33
706;BME280;21234;48.690;9.016;2024-01-30T00:41:46;97405.09;;;4.30;87.20
706;BME280;21234;48.690;9.016;2024-01-30T00:44:12;97409.06;;;4.20;87.59
706;BME280;21234;48.690;9.016;2024-01-30T00:46:39;97401.72;;;4.14;86.93
706;BME280;21234;48.690;9.016;2024-01-30T00:49:06;97408.00;;;4.06;88.13
706;BME280;21234;48.690;9.016;2024-01-30T00:51:32;97400.28;;;4.03;88.19
706;BME280;21234;48.690;9.016;2024-01-30T00:53:59;97405.09;;;3.93;88.55
706;BME280;21234;48.690;9.016;2024-01-30T00:56:26;97396.47;;;3.97;88.73
706;BME280;21234;48.690;9.016;2024-01-30T00:58:54;97404.91;;;3.94;89.11
706;BME280;21234;48.690;9.016;2024-01-30T01:01:21;97395.81;;;3.95;88.93
706;BME280;21234;48.690;9.016;2024-01-30T01:03:47;97394.59;;;3.83;89.06
706;BME280;21234;48.690;9.016;2024-01-30T01:06:14;97402.97;;;3.88;89.13
706;BME280;21234;48.690;9.016;2024-01-30T01:08:41;97402.31;;;3.86;88.31
706;BME280;21234;48.690;9.016;2024-01-30T01:11:08;97398.22;;;3.67;89.80
706;BME280;21234;48.690;9.016;2024-01-30T01:13:34;97398.75;;;3.63;89.66
706;BME280;21234;48.690;9.016;2024-01-30T01:16:03;97399.50;;;3.57;90.78
706;BME280;21234;48.690;9.016;2024-01-30T01:18:30;97400.97;;;3.59;90.86
706;BME280;21234;48.690;9.016;2024-01-30T01:20:57;97403.84;;;3.58;90.63
706;BME280;21234;48.690;9.016;2024-01-30T01:23:23;97405.66;;;3.65;89.86
706;BME280;21234;48.690;9.016;2024-01-30T01:25:50;97406.47;;;3.66;90.10
706;BME280;21234;48.690;9.016;2024-01-30T01:28:17;97404.75;;;3.73;89.68
706;BME280;21234;48.690;9.016;2024-01-30T01:30:44;97401.94;;;3.66;89.70
706;BME280;21234;48.690;9.016;2024-01-30T01:33:12;97403.44;;;3.69;89.61
706;BME280;21234;48.690;9.016;2024-01-30T01:35:39;97400.91;;;3.67;89.91
706;BME280;21234;48.690;9.016;2024-01-30T01:38:06;97396.06;;;3.63;89.88
706;BME280;21234;48.690;9.016;2024-01-30T01:40:32;97399.44;;;3.65;90.64
706;BME280;21234;48.690;9.016;2024-01-30T01:43:03;97395.38;;;3.69;90.07
706;BME280;21234;48.690;9.016;2024-01-30T01:45:30;97403.97;;;3.64;90.04
706;BME280;21234;48.690;9.016;2024-01-30T01:47:57;97398.41;;;3.66;90.34
706;BME280;21234;48.690;9.016;2024-01-30T01:50:25;97397.28;;;3.60;89.84
706;BME280;21234;48.690;9.016;2024-01-30T01:52:52;97403.22;;;3.56;90.34
706;BME280;21234;48.690;9.016;2024-01-30T01:55:21;97391.66;;;3.47;90.70
706;BME280;21234;48.690;9.016;2024-01-30T01:57:49;97394.06;;;3.42;91.11
706;BME280;21234;48.690;9.016;2024-01-30T02:00:17;97400.25;;;3.43;91.55
706;BME280;21234;48.690;9.016;2024-01-30T02:02:45;97393.56;;;3.38;91.10
706;BME280;21234;48.690;9.016;2024-01-30T02:05:12;97388.38;;;3.37;91.58
706;BME280;21234;48.690;9.016;2024-01-30T02:07:40;97400.44;;;3.41;90.93
706;BME280;21234;48.690;9.016;2024-01-30T02:10:08;97402.69;;;3.29;91.18
706;BME280;21234;48.690;9.016;2024-01-30T02:12:35;97390.09;;;3.30;91.78
706;BME280;21234;48.690;9.016;2024-01-30T02:15:02;97397.09;;;3.39;91.80
706;BME280;21234;48.690;9.016;2024-01-30T02:17:30;97400.13;;;3.36;91.58
706;BME280;21234;48.690;9.016;2024-01-30T02:19:56;97394.88;;;3.43;92.04
706;BME280;21234;48.690;9.016;2024-01-30T02:22:25;97398.47;;;3.35;91.63
706;BME280;21234;48.690;9.016;2024-01-30T02:24:51;97401.56;;;3.24;92.19
706;BME280;21234;48.690;9.016;2024-01-30T02:27:18;97402.88;;;3.28;92.67
706;BME280;21234;48.690;9.016;2024-01-30T02:29:45;97410.25;;;3.26;92.43
706;BME280;21234;48.690;9.016;2024-01-30T02:32:11;97405.72;;;3.26;92.26
706;BME280;21234;48.690;9.016;2024-01-30T02:34:38;97412.00;;;3.19;92.30
706;BME280;21234;48.690;9.016;2024-01-30T02:37:05;97408.69;;;3.09;92.49
706;BME280;21234;48.690;9.016;2024-01-30T02:39:33;97410.19;;;3.11;92.93
706;BME280;21234;48.690;9.016;2024-01-30T02:41:59;97407.69;;;3.10;92.77
706;BME280;21234;48.690;9.016;2024-01-30T02:44:26;97407.31;;;3.13;93.21
706;BME280;21234;48.690;9.016;2024-01-30T02:46:53;97405.34;;;3.07;93.10
706;BME280;21234;48.690;9.016;2024-01-30T02:49:20;97403.53;;;2.99;92.87
706;BME280;21234;48.690;9.016;2024-01-30T02:51:47;97400.91;;;2.91;93.64
706;BME280;21234;48.690;9.016;2024-01-30T02:54:13;97396.88;;;2.87;94.36
706;BME280;21234;48.690;9.016;2024-01-30T02:56:41;97408.91;;;2.99;94.04
706;BME280;21234;48.690;9.016;2024-01-30T02:59:08;97406.78;;;2.86;93.93
706;BME280;21234;48.690;9.016;2024-01-30T03:01:42;97398.72;;;2.86;94.59
706;BME280;21234;48.690;9.016;2024-01-30T03:04:09;97398.56;;;2.88;94.08
706;BME280;21234;48.690;9.016;2024-01-30T03:06:35;97401.75;;;2.83;94.83
706;BME280;21234;48.690;9.016;2024-01-30T03:09:02;97397.53;;;2.89;94.45
706;BME280;21234;48.690;9.016;2024-01-30T03:11:30;97400.59;;;2.86;95.42
706;BME280;21234;48.690;9.016;2024-01-30T03:13:58;97399.41;;;2.80;94.61
706;BME280;21234;48.690;9.016;2024-01-30T03:16:24;97402.63;;;2.76;94.54
706;BME280;21234;48.690;9.016;2024-01-30T03:18:51;97394.75;;;2.74;94.08
706;BME280;21234;48.690;9.016;2024-01-30T03:21:18;97399.47;;;2.64;94.76
706;BME280;21234;48.690;9.016;2024-01-30T03:23:44;97405.00;;;2.70;94.89
706;BME280;21234;48.690;9.016;2024-01-30T03:26:11;97403.50;;;2.68;94.89
706;BME280;21234;48.690;9.016;2024-01-30T03:28:38;97403.47;;;2.76;94.29
706;BME280;21234;48.690;9.016;2024-01-30T03:31:06;97403.31;;;2.69;94.32
706;BME280;21234;48.690;9.016;2024-01-30T03:33:33;97408.38;;;2.64;94.74
706;BME280;21234;48.690;9.016;2024-01-30T03:36:03;97404.88;;;2.56;94.67
706;BME280;21234;48.690;9.016;2024-01-30T03:38:29;97408.06;;;2.59;95.42
706;BME280;21234;48.690;9.016;2024-01-30T03:40:58;97404.88;;;2.56;95.94
706;BME280;21234;48.690;9.016;2024-01-30T03:43:25;97409.91;;;2.59;95.25
706;BME280;21234;48.690;9.016;2024-01-30T03:45:51;97404.84;;;2.64;94.75
706;BME280;21234;48.690;9.016;2024-01-30T03:48:20;97404.72;;;2.57;94.54
706;BME280;21234;48.690;9.016;2024-01-30T03:50:47;97402.53;;;2.53;95.01
706;BME280;21234;48.690;9.016;2024-01-30T03:53:14;97395.50;;;2.52;95.08
706;BME280;21234;48.690;9.016;2024-01-30T03:55:40;97399.47;;;2.64;94.65
706;BME280;21234;48.690;9.016;2024-01-30T03:58:07;97405.22;;;2.53;94.69
706;BME280;21234;48.690;9.016;2024-01-30T04:00:34;97402.72;;;2.43;95.23
706;BME280;21234;48.690;9.016;2024-01-30T04:03:00;97404.91;;;2.48;94.82
706;BME280;21234;48.690;9.016;2024-01-30T04:05:28;97406.75;;;2.55;95.17
706;BME280;21234;48.690;9.016;2024-01-30T04:07:55;97400.38;;;2.48;94.50
706;BME280;21234;48.690;9.016;2024-01-30T04:10:23;97406.41;;;2.50;94.73
706;BME280;21234;48.690;9.016;2024-01-30T04:12:50;97405.41;;;2.51;94.22
706;BME280;21234;48.690;9.016;2024-01-30T04:15:16;97402.72;;;2.43;95.16
706;BME280;21234;48.690;9.016;2024-01-30T04:17:43;97398.38;;;2.42;95.37
706;BME280;21234;48.690;9.016;2024-01-30T04:20:13;97395.19;;;2.47;95.10
706;BME280;21234;48.690;9.016;2024-01-30T04:22:42;97393.81;;;2.51;95.52
706;BME280;21234;48.690;9.016;2024-01-30T04:25:09;97402.69;;;2.59;94.16
706;BME280;21234;48.690;9.016;2024-01-30T04:27:35;97398.84;;;2.54;94.80
706;BME280;21234;48.690;9.016;2024-01-30T04:30:02;97397.34;;;2.51;93.89
706;BME280;21234;48.690;9.016;2024-01-30T04:32:42;97399.34;;;2.57;94.68
706;BME280;21234;48.690;9.016;2024-01-30T04:35:10;97396.34;;;2.52;93.81
706;BME280;21234;48.690;9.016;2024-01-30T04:37:36;97392.66;;;2.45;93.90
706;BME280;21234;48.690;9.016;2024-01-30T04:40:06;97393.00;;;2.42;93.79
706;BME280;21234;48.690;9.016;2024-01-30T04:42:33;97397.88;;;2.30;95.25
706;BME280;21234;48.690;9.016;2024-01-30T04:45:00;97394.53;;;2.36;94.58
706;BME280;21234;48.690;9.016;2024-01-30T04:47:27;97403.41;;;2.37;94.69
706;BME280;21234;48.690;9.016;2024-01-30T04:49:55;97404.25;;;2.38;94.99
706;BME280;21234;48.690;9.016;2024-01-30T04:52:21;97403.78;;;2.26;94.75
706;BME280;21234;48.690;9.016;2024-01-30T04:54:48;97402.13;;;2.25;95.31
706;BME280;21234;48.690;9.016;2024-01-30T04:57:16;97402.25;;;2.31;95.75
706;BME280;21234;48.690;9.016;2024-01-30T04:59:43;97401.75;;;2.28;95.67
706;BME280;21234;48.690;9.016;2024-01-30T05:02:09;97402.06;;;2.33;94.77
706;BME280;21234;48.690;9.016;2024-01-30T05:04:36;97402.06;;;2.33;95.45
706;BME280;21234;48.690;9.016;2024-01-30T05:07:03;97403.91;;;2.32;95.79
706;BME280;21234;48.690;9.016;2024-01-30T05:09:30;97409.28;;;2.32;95.35
706;BME280;21234;48.690;9.016;2024-01-30T05:11:56;97408.78;;;2.29;95.97
706;BME280;21234;48.690;9.016;2024-01-30T05:14:24;97414.53;;;2.26;94.80
706;BME280;21234;48.690;9.016;2024-01-30T05:16:51;97409.66;;;2.21;95.24
706;BME280;21234;48.690;9.016;2024-01-30T05:19:18;97412.19;;;2.23;95.37
706;BME280;21234;48.690;9.016;2024-01-30T05:21:45;97409.31;;;2.24;95.14
706;BME280;21234;48.690;9.016;2024-01-30T05:24:12;97410.63;;;2.28;95.27
706;BME280;21234;48.690;9.016;2024-01-30T05:26:39;97407.66;;;2.23;95.74
706;BME280;21234;48.690;9.016;2024-01-30T05:29:06;97398.59;;;2.24;94.98
706;BME280;21234;48.690;9.016;2024-01-30T05:31:34;97406.66;;;2.24;95.61
706;BME280;21234;48.690;9.016;2024-01-30T05:34:01;97407.09;;;2.36;95.00
706;BME280;21234;48.690;9.016;2024-01-30T05:36:27;97417.00;;;2.35;94.74
706;BME280;21234;48.690;9.016;2024-01-30T05:38:56;97410.84;;;2.27;93.85
706;BME280;21234;48.690;9.016;2024-01-30T05:41:22;97407.09;;;2.36;94.80
706;BME280;21234;48.690;9.016;2024-01-30T05:43:49;97409.13;;;2.34;94.08
706;BME280;21234;48.690;9.016;2024-01-30T05:46:16;97410.00;;;2.26;93.96
706;BME280;21234;48.690;9.016;2024-01-30T05:48:44;97412.19;;;2.23;95.10
706;BME280;21234;48.690;9.016;2024-01-30T05:51:11;97409.16;;;2.26;94.98
706;BME280;21234;48.690;9.016;2024-01-30T05:53:38;97424.22;;;2.35;94.80
706;BME280;21234;48.690;9.016;2024-01-30T05:56:05;97424.88;;;2.29;94.99
706;BME280;21234;48.690;9.016;2024-01-30T05:58:32;97422.75;;;2.24;94.78
706;BME280;21234;48.690;9.016;2024-01-30T06:00:59;97429.28;;;2.22;95.04
706;BME280;21234;48.690;9.016;2024-01-30T06:03:25;97432.13;;;2.20;95.33
706;BME280;21234;48.690;9.016;2024-01-30T06:05:54;97428.09;;;2.24;95.18
706;BME280;21234;48.690;9.016;2024-01-30T06:08:20;97428.56;;;2.28;95.89
706;BME280;21234;48.690;9.016;2024-01-30T06:10:47;97425.75;;;2.21;95.60
706;BME280;21234;48.690;9.016;2024-01-30T06:13:14;97430.13;;;2.22;95.10
706;BME280;21234;48.690;9.016;2024-01-30T06:15:41;97423.75;;;2.23;95.12
706;BME280;21234;48.690;9.016;2024-01-30T06:18:07;97419.22;;;2.24;95.43
706;BME280;21234;48.690;9.016;2024-01-30T06:20:34;97424.75;;;2.22;94.88
706;BME280;21234;48.690;9.016;2024-01-30T06:23:02;97427.28;;;2.24;95.04
706;BME280;21234;48.690;9.016;2024-01-30T06:25:29;97432.25;;;2.35;95.23
706;BME280;21234;48.690;9.016;2024-01-30T06:27:56;97427.56;;;2.29;95.30
706;BME280;21234;48.690;9.016;2024-01-30T06:30:22;97434.81;;;2.20;95.61
706;BME280;21234;48.690;9.016;2024-01-30T06:32:49;97424.88;;;2.29;95.02
706;BME280;21234;48.690;9.016;2024-01-30T06:35:16;97430.25;;;2.37;93.65
706;BME280;21234;48.690;9.016;2024-01-30T06:37:43;97432.59;;;2.40;93.73
706;BME280;21234;48.690;9.016;2024-01-30T06:40:11;97430.41;;;2.35;93.47
706;BME280;21234;48.690;9.016;2024-01-30T06:42:38;97419.69;;;2.35;94.01
706;BME280;21234;48.690;9.016;2024-01-30T06:45:06;97435.09;;;2.42;93.58
706;BME280;21234;48.690;9.016;2024-01-30T06:47:33;97428.22;;;2.39;93.06
706;BME280;21234;48.690;9.016;2024-01-30T06:49:59;97427.41;;;2.39;94.32
706;BME280;21234;48.690;9.016;2024-01-30T06:52:27;97435.78;;;2.44;94.01
706;BME280;21234;48.690;9.016;2024-01-30T06:54:54;97433.94;;;2.44;93.67
706;BME280;21234;48.690;9.016;2024-01-30T06:57:22;97431.75;;;2.40;94.66
706;BME280;21234;48.690;9.016;2024-01-30T06:59:48;97434.09;;;2.43;94.72
706;BME280;21234;48.690;9.016;2024-01-30T07:02:15;97432.25;;;2.43;93.43
706;BME280;21234;48.690;9.016;2024-01-30T07:04:42;97433.78;;;2.38;94.20
706;BME280;21234;48.690;9.016;2024-01-30T07:07:09;97442.66;;;2.38;93.82
706;BME280;21234;48.690;9.016;2024-01-30T07:09:38;97447.00;;;2.47;93.64
706;BME280;21234;48.690;9.016;2024-01-30T07:12:05;97443.16;;;2.42;94.09
706;BME280;21234;48.690;9.016;2024-01-30T07:14:34;97450.69;;;2.46;93.17
706;BME280;21234;48.690;9.016;2024-01-30T07:17:01;97452.03;;;2.50;92.89
706;BME280;21234;48.690;9.016;2024-01-30T07:19:27;97450.53;;;2.48;92.24
706;BME280;21234;48.690;9.016;2024-01-30T07:21:54;97454.34;;;2.61;91.53
706;BME280;21234;48.690;9.016;2024-01-30T07:24:21;97444.78;;;2.67;91.64
706;BME280;21234;48.690;9.016;2024-01-30T07:26:47;97445.09;;;2.72;90.10
706;BME280;21234;48.690;9.016;2024-01-30T07:29:14;97444.50;;;2.93;90.31
706;BME280;21234;48.690;9.016;2024-01-30T07:31:42;97444.28;;;3.11;88.85
706;BME280;21234;48.690;9.016;2024-01-30T07:34:09;97437.06;;;3.42;85.92
706;BME280;21234;48.690;9.016;2024-01-30T07:36:35;97437.72;;;3.44;85.34
706;BME280;21234;48.690;9.016;2024-01-30T07:39:02;97437.94;;;3.34;85.09
706;BME280;21234;48.690;9.016;2024-01-30T07:41:29;97441.81;;;3.32;85.71
706;BME280;21234;48.690;9.016;2024-01-30T07:43:55;97452.81;;;3.22;86.29
706;BME280;21234;48.690;9.016;2024-01-30T07:46:22;97445.03;;;3.27;89.19
706;BME280;21234;48.690;9.016;2024-01-30T07:48:53;97445.78;;;3.44;88.47
706;BME280;21234;48.690;9.016;2024-01-30T07:51:21;97444.94;;;3.44;86.92
706;BME280;21234;48.690;9.016;2024-01-30T07:53:47;97453.50;;;3.47;86.55
706;BME280;21234;48.690;9.016;2024-01-30T07:56:14;97450.47;;;3.50;86.71
706;BME280;21234;48.690;9.016;2024-01-30T07:58:41;97443.81;;;3.61;85.87
706;BME280;21234;48.690;9.016;2024-01-30T08:01:08;97449.63;;;3.72;86.14
706;BME280;21234;48.690;9.016;2024-01-30T08:03:34;97453.47;;;3.78;85.52
706;BME280;21234;48.690;9.016;2024-01-30T08:06:03;97459.38;;;3.96;84.97
706;BME280;21234;48.690;9.016;2024-01-30T08:08:30;97450.09;;;4.74;81.06
706;BME280;21234;48.690;9.016;2024-01-30T08:10:57;97451.84;;;5.11;77.88
706;BME280;21234;48.690;9.016;2024-01-30T08:13:24;97443.44;;;5.35;76.52
706;BME280;21234;48.690;9.016;2024-01-30T08:15:50;97446.78;;;5.73;74.68
706;BME280;21234;48.690;9.016;2024-01-30T08:18:17;97447.31;;;6.26;71.24
706;BME280;21234;48.690;9.016;2024-01-30T08:20:44;97451.81;;;6.68;70.18
706;BME280;21234;48.690;9.016;2024-01-30T08:23:12;97450.34;;;6.66;68.28
706;BME280;21234;48.690;9.016;2024-01-30T08:25:38;97445.16;;;6.15;70.16
706;BME280;21234;48.690;9.016;2024-01-30T08:28:05;97447.94;;;5.86;73.28
706;BME280;21234;48.690;9.016;2024-01-30T08:30:32;97445.16;;;5.58;72.38
706;BME280;21234;48.690;9.016;2024-01-30T08:32:59;97447.63;;;5.23;73.64
706;BME280;21234;48.690;9.016;2024-01-30T08:35:25;97445.63;;;5.11;74.02
706;BME280;21234;48.690;9.016;2024-01-30T08:37:52;97442.38;;;5.00;76.76
706;BME280;21234;48.690;9.016;2024-01-30T08:40:21;97440.63;;;4.78;77.48
706;BME280;21234;48.690;9.016;2024-01-30T08:42:47;97443.84;;;4.73;78.93
706;BME280;21234;48.690;9.016;2024-01-30T08:45:14;97451.56;;;4.77;79.94
706;BME280;21234;48.690;9.016;2024-01-30T08:47:41;97447.31;;;4.82;78.78
706;BME280;21234;48.690;9.016;2024-01-30T08:50:08;97450.63;;;4.69;78.42
706;BME280;21234;48.690;9.016;2024-01-30T08:52:35;97449.53;;;4.79;79.11
706;BME280;21234;48.690;9.016;2024-01-30T08:55:02;97446.91;;;4.70;79.21
706;BME280;21234;48.690;9.016;2024-01-30T08:57:31;97452.22;;;4.79;80.25
706;BME280;21234;48.690;9.016;2024-01-30T08:59:57;97450.44;;;5.00;79.46
706;BME280;21234;48.690;9.016;2024-01-30T09:02:24;97456.41;;;5.11;79.08
706;BME280;21234;48.690;9.016;2024-01-30T09:04:51;97458.88;;;5.27;77.57
706;BME280;21234;48.690;9.016;2024-01-30T09:07:17;97460.09;;;5.39;77.49
706;BME280;21234;48.690;9.016;2024-01-30T09:09:44;97462.72;;;5.54;77.01
706;BME280;21234;48.690;9.016;2024-01-30T09:12:11;97467.28;;;5.68;74.87
706;BME280;21234;48.690;9.016;2024-01-30T09:14:39;97468.84;;;5.77;76.60
706;BME280;21234;48.690;9.016;2024-01-30T09:17:06;97458.84;;;5.92;74.49
706;BME280;21234;48.690;9.016;2024-01-30T09:19:33;97467.09;;;6.05;74.31
706;BME280;21234;48.690;9.016;2024-01-30T09:22:00;97468.00;;;6.13;73.48
706;BME280;21234;48.690;9.016;2024-01-30T09:24:27;97467.19;;;6.19;71.03
706;BME280;21234;48.690;9.016;2024-01-30T09:26:53;97465.94;;;6.15;72.75
706;BME280;21234;48.690;9.016;2024-01-30T09:29:21;97471.06;;;6.10;74.13
706;BME280;21234;48.690;9.016;2024-01-30T09:31:49;97468.81;;;6.13;74.29
706;BME280;21234;48.690;9.016;2024-01-30T09:34:15;97474.53;;;6.25;74.91
706;BME280;21234;48.690;9.016;2024-01-30T09:36:42;97472.72;;;6.32;73.82
706;BME280;21234;48.690;9.016;2024-01-30T09:39:09;97472.78;;;6.38;73.77
706;BME280;21234;48.690;9.016;2024-01-30T09:41:45;97468.28;;;6.46;73.48
706;BME280;21234;48.690;9.016;2024-01-30T09:44:15;97471.22;;;6.51;73.18
706;BME280;21234;48.690;9.016;2024-01-30T09:46:42;97473.31;;;6.55;72.93
706;BME280;21234;48.690;9.016;2024-01-30T09:49:11;97477.56;;;6.64;73.40
706;BME280;21234;48.690;9.016;2024-01-30T09:51:38;97469.06;;;6.67;73.83
706;BME280;21234;48.690;9.016;2024-01-30T09:54:06;97478.06;;;6.74;74.91
706;BME280;21234;48.690;9.016;2024-01-30T09:56:34;97482.25;;;6.77;74.36
706;BME280;21234;48.690;9.016;2024-01-30T09:59:01;97487.28;;;6.87;74.36
706;BME280;21234;48.690;9.016;2024-01-30T10:01:28;97482.97;;;6.92;72.95
706;BME280;21234;48.690;9.016;2024-01-30T10:03:55;97487.78;;;6.97;70.54
706;BME280;21234;48.690;9.016;2024-01-30T10:06:24;97492.06;;;7.13;70.21
706;BME280;21234;48.690;9.016;2024-01-30T10:08:51;97482.75;;;7.28;69.95
706;BME280;21234;48.690;9.016;2024-01-30T10:11:17;97481.16;;;7.40;67.52
706;BME280;21234;48.690;9.016;2024-01-30T10:13:44;97483.53;;;7.57;68.72
706;BME280;21234;48.690;9.016;2024-01-30T10:16:13;97479.00;;;7.70;64.93
706;BME280;21234;48.690;9.016;2024-01-30T10:18:41;97482.16;;;7.74;63.08
706;BME280;21234;48.690;9.016;2024-01-30T10:21:08;97477.16;;;7.84;63.89
706;BME280;21234;48.690;9.016;2024-01-30T10:23:36;97477.81;;;7.93;65.61
706;BME280;21234;48.690;9.016;2024-01-30T10:26:04;97478.47;;;8.01;67.31
706;BME280;21234;48.690;9.016;2024-01-30T10:28:30;97480.75;;;7.98;62.58
706;BME280;21234;48.690;9.016;2024-01-30T10:30:57;97472.66;;;8.04;62.01
706;BME280;21234;48.690;9.016;2024-01-30T10:33:25;97478.09;;;8.11;61.95
706;BME280;21234;48.690;9.016;2024-01-30T10:35:54;97472.88;;;8.16;62.89
706;BME280;21234;48.690;9.016;2024-01-30T10:38:23;97471.63;;;8.25;61.34
706;BME280;21234;48.690;9.016;2024-01-30T10:40:57;97465.44;;;8.38;62.51
706;BME280;21234;48.690;9.016;2024-01-30T10:43:28;97465.44;;;8.51;62.68
706;BME280;21234;48.690;9.016;2024-01-30T10:45:57;97468.56;;;8.55;60.67
706;BME280;21234;48.690;9.016;2024-01-30T10:48:30;97468.78;;;8.60;59.82
706;BME280;21234;48.690;9.016;2024-01-30T10:50:59;97463.97;;;8.75;60.30
706;BME280;21234;48.690;9.016;2024-01-30T10:53:28;97463.31;;;8.80;59.46
706;BME280;21234;48.690;9.016;2024-01-30T10:55:59;97456.84;;;8.94;59.76
706;BME280;21234;48.690;9.016;2024-01-30T10:58:26;97461.66;;;9.05;59.97
706;BME280;21234;48.690;9.016;2024-01-30T11:00:54;97459.09;;;9.17;60.09
706;BME280;21234;48.690;9.016;2024-01-30T11:03:21;97447.19;;;9.24;58.70
706;BME280;21234;48.690;9.016;2024-01-30T11:05:49;97456.78;;;9.27;56.92
706;BME280;21234;48.690;9.016;2024-01-30T11:08:23;97445.72;;;9.35;57.25
706;BME280;21234;48.690;9.016;2024-01-30T11:10:55;97449.00;;;9.43;57.35
706;BME280;21234;48.690;9.016;2024-01-30T11:13:26;97456.06;;;9.51;55.88
706;BME280;21234;48.690;9.016;2024-01-30T11:15:54;97451.88;;;9.55;56.85
706;BME280;21234;48.690;9.016;2024-01-30T11:18:24;97457.91;;;9.64;56.61
706;BME280;21234;48.690;9.016;2024-01-30T11:20:50;97448.06;;;9.69;56.79
706;BME280;21234;48.690;9.016;2024-01-30T11:23:17;97447.19;;;9.75;56.44
706;BME280;21234;48.690;9.016;2024-01-30T11:25:44;97448.22;;;9.81;57.00
706;BME280;21234;48.690;9.016;2024-01-30T11:28:13;97452.59;;;9.82;55.38
706;BME280;21234;48.690;9.016;2024-01-30T11:30:42;97450.28;;;9.86;55.67
706;BME280;21234;48.690;9.016;2024-01-30T11:33:09;97450.50;;;9.84;54.93
706;BME280;21234;48.690;9.016;2024-01-30T11:35:38;97453.19;;;9.91;54.92
706;BME280;21234;48.690;9.016;2024-01-30T11:38:06;97445.44;;;9.94;55.73
706;BME280;21234;48.690;9.016;2024-01-30T11:40:34;97440.63;;;9.96;56.47
706;BME280;21234;48.690;9.016;2024-01-30T11:43:03;97446.84;;;10.03;56.34
706;BME280;21234;48.690;9.016;2024-01-30T11:45:31;97439.91;;;10.07;55.80
706;BME280;21234;48.690;9.016;2024-01-30T11:48:00;97443.22;;;10.09;55.71
706;BME280;21234;48.690;9.016;2024-01-30T11:50:28;97441.34;;;10.10;55.71
706;BME280;21234;48.690;9.016;2024-01-30T11:52:55;97442.38;;;10.16;55.94
706;BME280;21234;48.690;9.016;2024-01-30T11:55:23;97437.16;;;10.21;55.83
706;BME280;21234;48.690;9.016;2024-01-30T11:57:50;97438.16;;;10.26;56.00
706;BME280;21234;48.690;9.016;2024-01-30T12:00:18;97427.72;;;10.23;54.96
706;BME280;21234;48.690;9.016;2024-01-30T12:02:49;97429.56;;;10.29;56.06
706;BME280;21234;48.690;9.016;2024-01-30T12:05:18;97426.00;;;10.29;55.13
706;BME280;21234;48.690;9.016;2024-01-30T12:07:45;97427.25;;;10.33;54.57
706;BME280;21234;48.690;9.016;2024-01-30T12:10:13;97414.25;;;10.35;54.59
706;BME280;21234;48.690;9.016;2024-01-30T12:12:43;97416.53;;;10.38;54.55
706;BME280;21234;48.690;9.016;2024-01-30T12:15:10;97417.59;;;10.37;53.95
706;BME280;21234;48.690;9.016;2024-01-30T12:17:37;97414.75;;;10.50;54.87
706;BME280;21234;48.690;9.016;2024-01-30T12:20:04;97409.88;;;10.59;54.45
706;BME280;21234;48.690;9.016;2024-01-30T12:22:35;97404.81;;;10.62;53.72
706;BME280;21234;48.690;9.016;2024-01-30T12:25:04;97401.22;;;10.68;54.40
706;BME280;21234;48.690;9.016;2024-01-30T12:27:31;97401.34;;;10.73;54.71
706;BME280;21234;48.690;9.016;2024-01-30T12:29:58;97401.53;;;10.78;54.19
706;BME280;21234;48.690;9.016;2024-01-30T12:32:25;97398.97;;;10.84;54.46
706;BME280;21234;48.690;9.016;2024-01-30T12:34:55;97404.97;;;10.92;54.92
706;BME280;21234;48.690;9.016;2024-01-30T12:37:21;97404.50;;;10.95;53.91
706;BME280;21234;48.690;9.016;2024-01-30T12:39:51;97399.50;;;10.92;53.17
706;BME280;21234;48.690;9.016;2024-01-30T12:42:19;97397.63;;;10.93;53.65
706;BME280;21234;48.690;9.016;2024-01-30T12:44:47;97400.34;;;10.93;52.95
706;BME280;21234;48.690;9.016;2024-01-30T12:47:13;97393.56;;;11.02;53.28
706;BME280;21234;48.690;9.016;2024-01-30T12:49:41;97394.91;;;11.11;54.36
706;BME280;21234;48.690;9.016;2024-01-30T12:52:09;97397.94;;;11.21;54.27
706;BME280;21234;48.690;9.016;2024-01-30T12:54:36;97386.75;;;11.29;53.08
706;BME280;21234;48.690;9.016;2024-01-30T12:57:04;97397.00;;;11.45;52.72
706;BME280;21234;48.690;9.016;2024-01-30T12:59:31;97387.19;;;11.63;51.93
706;BME280;21234;48.690;9.016;2024-01-30T13:02:00;97385.78;;;11.72;50.89
706;BME280;21234;48.690;9.016;2024-01-30T13:04:28;97389.56;;;11.89;51.15
706;BME280;21234;48.690;9.016;2024-01-30T13:06:55;97394.09;;;12.07;51.40
706;BME280;21234;48.690;9.016;2024-01-30T13:09:23;97392.34;;;12.13;50.34
706;BME280;21234;48.690;9.016;2024-01-30T13:11:50;97389.03;;;12.10;49.95
706;BME280;21234;48.690;9.016;2024-01-30T13:14:19;97384.16;;;12.01;49.50
706;BME280;21234;48.690;9.016;2024-01-30T13:16:46;97394.47;;;11.99;49.25
706;BME280;21234;48.690;9.016;2024-01-30T13:19:13;97394.69;;;11.97;49.37
706;BME280;21234;48.690;9.016;2024-01-30T13:21:40;97396.97;;;12.00;50.24
706;BME280;21234;48.690;9.016;2024-01-30T13:24:09;97390.31;;;11.96;49.76
706;BME280;21234;48.690;9.016;2024-01-30T13:26:36;97386.59;;;11.91;49.48
706;BME280;21234;48.690;9.016;2024-01-30T13:29:04;97393.50;;;11.93;49.39
706;BME280;21234;48.690;9.016;2024-01-30T13:31:34;97394.94;;;11.96;49.00